sensor_id;sensor_type;location;lat;lon;timestamp;pressure;altitude;pressure_sealevel;temperature;humidity
16016;BME280;8112;53.592;10.184;2022-07-22T00:02:15;101323.81;;;20.15;100.00
16016;BME280;8112;53.592;10.184;2022-07-22T00:08:08;101327.19;;;20.17;100.00
16016;BME280;8112;53.592;10.184;2022-07-22T00:13:40;101328.03;;;20.08;100.00
16016;BME280;8112;53.592;10.184;2022-07-22T00:18:48;101321.13;;;20.15;100.00
16016;BME280;8112;53.592;10.184;2022-07-22T00:24:21;101333.69;;;20.15;100.00
16016;BME280;8112;53.592;10.184;2022-07-22T00:29:32;101334.09;;;20.20;100.00
16016;BME280;8112;53.592;10.184;2022-07-22T00:34:39;101333.81;;;20.03;100.00
16016;BME280;8112;53.592;10.184;2022-07-22T00:39:45;101334.50;;;20.05;100.00
16016;BME280;8112;53.592;10.184;2022-07-22T00:44:48;101321.84;;;20.07;100.00
16016;BME280;8112;53.592;10.184;2022-07-22T00:49:51;101331.34;;;19.80;100.00
16016;BME280;8112;53.592;10.184;2022-07-22T00:54:58;101336.31;;;19.54;100.00
16016;BME280;8112;53.592;10.184;2022-07-22T01:00:12;101357.19;;;19.39;100.00
16016;BME280;8112;53.592;10.184;2022-07-22T01:05:16;101347.66;;;19.15;100.00
16016;BME280;8112;53.592;10.184;2022-07-22T01:10:20;101348.00;;;18.79;100.00
16016;BME280;8112;53.592;10.184;2022-07-22T01:15:22;101347.38;;;18.76;100.00
16016;BME280;8112;53.592;10.184;2022-07-22T01:20:26;101352.06;;;18.62;100.00
16016;BME280;8112;53.592;10.184;2022-07-22T01:25:35;101354.72;;;18.41;100.00
16016;BME280;8112;53.592;10.184;2022-07-22T01:30:37;101358.72;;;18.35;100.00
16016;BME280;8112;53.592;10.184;2022-07-22T01:35:41;101361.84;;;18.08;100.00
16016;BME280;8112;53.592;10.184;2022-07-22T01:40:43;101373.09;;;17.89;100.00
16016;BME280;8112;53.592;10.184;2022-07-22T01:45:49;101373.72;;;17.58;100.00
16016;BME280;8112;53.592;10.184;2022-07-22T01:50:53;101382.31;;;17.28;100.00
16016;BME280;8112;53.592;10.184;2022-07-22T01:55:56;101396.53;;;17.04;100.00
16016;BME280;8112;53.592;10.184;2022-07-22T02:00:58;101400.13;;;16.67;100.00
16016;BME280;8112;53.592;10.184;2022-07-22T02:06:02;101407.28;;;16.66;100.00
16016;BME280;8112;53.592;10.184;2022-07-22T02:11:04;101406.25;;;16.56;100.00
16016;BME280;8112;53.592;10.184;2022-07-22T02:16:06;101403.41;;;16.46;100.00
16016;BME280;8112;53.592;10.184;2022-07-22T02:21:22;101413.16;;;16.34;100.00
16016;BME280;8112;53.592;10.184;2022-07-22T02:26:35;101413.19;;;16.46;100.00
16016;BME280;8112;53.592;10.184;2022-07-22T02:31:39;101420.50;;;16.55;100.00
16016;BME280;8112;53.592;10.184;2022-07-22T02:36:44;101425.13;;;16.64;100.00
16016;BME280;8112;53.592;10.184;2022-07-22T02:41:46;101421.66;;;16.64;100.00
16016;BME280;8112;53.592;10.184;2022-07-22T02:46:48;101424.88;;;16.56;100.00
16016;BME280;8112;53.592;10.184;2022-07-22T02:51:58;101426.00;;;16.65;100.00
16016;BME280;8112;53.592;10.184;2022-07-22T02:57:00;101437.03;;;16.72;100.00
16016;BME280;8112;53.592;10.184;2022-07-22T03:02:02;101439.22;;;16.66;100.00
16016;BME280;8112;53.592;10.184;2022-07-22T03:07:08;101444.78;;;16.75;100.00
16016;BME280;8112;53.592;10.184;2022-07-22T03:12:19;101438.28;;;16.79;100.00
16016;BME280;8112;53.592;10.184;2022-07-22T03:17:20;101439.31;;;16.65;100.00
16016;BME280;8112;53.592;10.184;2022-07-22T03:22:42;101443.50;;;16.56;100.00
16016;BME280;8112;53.592;10.184;2022-07-22T03:27:50;101439.59;;;16.49;100.00
16016;BME280;8112;53.592;10.184;2022-07-22T03:32:52;101447.22;;;16.53;100.00
16016;BME280;8112;53.592;10.184;2022-07-22T03:38:00;101438.63;;;16.50;100.00
16016;BME280;8112;53.592;10.184;2022-07-22T03:43:05;101446.72;;;16.48;100.00
16016;BME280;8112;53.592;10.184;2022-07-22T03:48:07;101449.50;;;16.47;100.00
16016;BME280;8112;53.592;10.184;2022-07-22T03:53:30;101449.09;;;16.64;100.00
16016;BME280;8112;53.592;10.184;2022-07-22T03:58:36;101450.28;;;16.60;100.00
16016;BME280;8112;53.592;10.184;2022-07-22T04:03:39;101450.06;;;16.63;100.00
16016;BME280;8112;53.592;10.184;2022-07-22T04:08:45;101443.09;;;16.74;100.00
16016;BME280;8112;53.592;10.184;2022-07-22T04:13:51;101439.16;;;16.91;100.00
16016;BME280;8112;53.592;10.184;2022-07-22T04:18:59;101444.63;;;17.14;100.00
16016;BME280;8112;53.592;10.184;2022-07-22T04:24:46;101452.47;;;17.15;100.00
16016;BME280;8112;53.592;10.184;2022-07-22T04:35:27;101456.88;;;17.28;100.00
16016;BME280;8112;53.592;10.184;2022-07-22T04:40:48;101468.53;;;17.38;100.00
16016;BME280;8112;53.592;10.184;2022-07-22T04:45:56;101465.13;;;17.36;100.00
16016;BME280;8112;53.592;10.184;2022-07-22T04:51:10;101463.19;;;17.27;100.00
16016;BME280;8112;53.592;10.184;2022-07-22T04:56:35;101467.31;;;17.31;100.00
16016;BME280;8112;53.592;10.184;2022-07-22T05:01:50;101468.75;;;17.35;100.00
16016;BME280;8112;53.592;10.184;2022-07-22T05:07:19;101461.59;;;17.24;100.00
16016;BME280;8112;53.592;10.184;2022-07-22T05:12:30;101467.16;;;17.21;100.00
16016;BME280;8112;53.592;10.184;2022-07-22T05:17:40;101473.34;;;17.33;100.00
16016;BME280;8112;53.592;10.184;2022-07-22T05:22:56;101477.66;;;17.11;100.00
16016;BME280;8112;53.592;10.184;2022-07-22T05:28:21;101473.88;;;17.02;100.00
16016;BME280;8112;53.592;10.184;2022-07-22T05:33:45;101477.59;;;17.00;100.00
16016;BME280;8112;53.592;10.184;2022-07-22T05:39:02;101487.47;;;16.98;100.00
16016;BME280;8112;53.592;10.184;2022-07-22T05:44:06;101487.78;;;16.81;100.00
16016;BME280;8112;53.592;10.184;2022-07-22T05:49:18;101486.75;;;16.95;100.00
16016;BME280;8112;53.592;10.184;2022-07-22T05:54:46;101494.81;;;17.31;100.00
16016;BME280;8112;53.592;10.184;2022-07-22T05:59:52;101491.50;;;17.28;100.00
16016;BME280;8112;53.592;10.184;2022-07-22T06:05:04;101494.97;;;17.52;100.00
16016;BME280;8112;53.592;10.184;2022-07-22T06:10:24;101481.88;;;17.49;100.00
16016;BME280;8112;53.592;10.184;2022-07-22T06:15:27;101489.03;;;17.60;100.00
16016;BME280;8112;53.592;10.184;2022-07-22T06:20:30;101488.72;;;17.88;100.00
16016;BME280;8112;53.592;10.184;2022-07-22T06:25:32;101488.00;;;17.97;100.00
16016;BME280;8112;53.592;10.184;2022-07-22T06:30:35;101485.06;;;17.89;100.00
16016;BME280;8112;53.592;10.184;2022-07-22T06:35:42;101499.16;;;17.79;100.00
16016;BME280;8112;53.592;10.184;2022-07-22T06:40:44;101498.63;;;17.74;100.00
16016;BME280;8112;53.592;10.184;2022-07-22T06:51:50;101488.03;;;18.20;100.00
16016;BME280;8112;53.592;10.184;2022-07-22T06:56:53;101491.88;;;18.50;100.00
16016;BME280;8112;53.592;10.184;2022-07-22T07:02:02;101479.91;;;18.77;100.00
16016;BME280;8112;53.592;10.184;2022-07-22T07:07:18;101482.84;;;18.74;100.00
16016;BME280;8112;53.592;10.184;2022-07-22T07:12:34;101480.16;;;18.74;100.00
16016;BME280;8112;53.592;10.184;2022-07-22T07:18:02;101490.47;;;18.78;100.00
16016;BME280;8112;53.592;10.184;2022-07-22T07:23:19;101490.88;;;18.62;100.00
16016;BME280;8112;53.592;10.184;2022-07-22T07:28:28;101487.88;;;18.44;100.00
16016;BME280;8112;53.592;10.184;2022-07-22T07:33:43;101499.28;;;18.58;100.00
16016;BME280;8112;53.592;10.184;2022-07-22T07:38:51;101496.72;;;18.56;100.00
16016;BME280;8112;53.592;10.184;2022-07-22T07:44:05;101478.69;;;18.26;100.00
16016;BME280;8112;53.592;10.184;2022-07-22T07:49:27;101510.59;;;18.16;100.00
16016;BME280;8112;53.592;10.184;2022-07-22T07:54:35;101492.63;;;18.18;100.00
16016;BME280;8112;53.592;10.184;2022-07-22T07:59:38;101506.94;;;18.17;100.00
16016;BME280;8112;53.592;10.184;2022-07-22T08:04:45;101498.19;;;18.37;100.00
16016;BME280;8112;53.592;10.184;2022-07-22T08:09:50;101509.97;;;18.46;100.00
16016;BME280;8112;53.592;10.184;2022-07-22T08:15:30;101513.09;;;18.63;100.00
16016;BME280;8112;53.592;10.184;2022-07-22T08:21:01;101511.13;;;18.65;100.00
16016;BME280;8112;53.592;10.184;2022-07-22T08:26:13;101523.66;;;18.53;100.00
16016;BME280;8112;53.592;10.184;2022-07-22T08:31:15;101517.09;;;18.57;100.00
16016;BME280;8112;53.592;10.184;2022-07-22T08:36:26;101526.22;;;18.43;100.00
16016;BME280;8112;53.592;10.184;2022-07-22T08:41:34;101534.84;;;18.35;100.00
16016;BME280;8112;53.592;10.184;2022-07-22T08:46:38;101537.66;;;18.78;100.00
16016;BME280;8112;53.592;10.184;2022-07-22T08:52:00;101530.84;;;19.29;100.00
16016;BME280;8112;53.592;10.184;2022-07-22T08:57:12;101518.59;;;19.69;100.00
16016;BME280;8112;53.592;10.184;2022-07-22T09:02:27;101523.69;;;19.72;100.00
16016;BME280;8112;53.592;10.184;2022-07-22T09:07:45;101527.06;;;19.74;100.00
16016;BME280;8112;53.592;10.184;2022-07-22T09:12:56;101522.69;;;19.73;100.00
16016;BME280;8112;53.592;10.184;2022-07-22T09:18:23;101530.59;;;19.54;100.00
16016;BME280;8112;53.592;10.184;2022-07-22T09:24:00;101529.66;;;19.22;100.00
16016;BME280;8112;53.592;10.184;2022-07-22T09:29:02;101526.31;;;19.41;100.00
16016;BME280;8112;53.592;10.184;2022-07-22T09:34:32;101528.03;;;20.16;100.00
16016;BME280;8112;53.592;10.184;2022-07-22T09:39:47;101534.59;;;20.84;100.00
16016;BME280;8112;53.592;10.184;2022-07-22T09:44:50;101531.53;;;20.47;100.00
16016;BME280;8112;53.592;10.184;2022-07-22T09:50:14;101536.63;;;20.19;100.00
16016;BME280;8112;53.592;10.184;2022-07-22T09:55:40;101535.09;;;19.74;100.00
16016;BME280;8112;53.592;10.184;2022-07-22T10:00:43;101544.69;;;19.77;100.00
16016;BME280;8112;53.592;10.184;2022-07-22T10:05:53;101551.91;;;20.07;100.00
16016;BME280;8112;53.592;10.184;2022-07-22T10:10:59;101547.44;;;20.08;100.00
16016;BME280;8112;53.592;10.184;2022-07-22T10:16:05;101552.78;;;20.49;100.00
16016;BME280;8112;53.592;10.184;2022-07-22T10:21:12;101551.41;;;20.64;100.00
16016;BME280;8112;53.592;10.184;2022-07-22T10:26:18;101547.59;;;20.47;100.00
16016;BME280;8112;53.592;10.184;2022-07-22T10:31:26;101549.63;;;20.03;100.00
16016;BME280;8112;53.592;10.184;2022-07-22T10:36:35;101560.09;;;20.06;100.00
16016;BME280;8112;53.592;10.184;2022-07-22T10:41:45;101563.34;;;19.67;100.00
16016;BME280;8112;53.592;10.184;2022-07-22T10:46:51;101573.13;;;19.78;100.00
16016;BME280;8112;53.592;10.184;2022-07-22T10:52:11;101559.91;;;19.98;100.00
16016;BME280;8112;53.592;10.184;2022-07-22T10:57:33;101566.00;;;20.10;100.00
16016;BME280;8112;53.592;10.184;2022-07-22T11:02:39;101565.66;;;20.24;100.00
16016;BME280;8112;53.592;10.184;2022-07-22T11:07:47;101560.41;;;20.54;100.00
16016;BME280;8112;53.592;10.184;2022-07-22T11:12:54;101562.44;;;20.30;100.00
16016;BME280;8112;53.592;10.184;2022-07-22T11:17:58;101564.56;;;20.27;100.00
16016;BME280;8112;53.592;10.184;2022-07-22T11:23:01;101565.38;;;21.19;100.00
16016;BME280;8112;53.592;10.184;2022-07-22T11:28:06;101567.19;;;21.68;100.00
16016;BME280;8112;53.592;10.184;2022-07-22T11:33:10;101563.22;;;21.13;100.00
16016;BME280;8112;53.592;10.184;2022-07-22T11:38:12;101554.69;;;20.68;100.00
16016;BME280;8112;53.592;10.184;2022-07-22T11:43:15;101559.13;;;21.08;100.00
16016;BME280;8112;53.592;10.184;2022-07-22T11:48:19;101556.16;;;21.02;100.00
16016;BME280;8112;53.592;10.184;2022-07-22T11:53:21;101560.41;;;21.04;100.00
16016;BME280;8112;53.592;10.184;2022-07-22T11:58:41;101561.53;;;21.21;100.00
16016;BME280;8112;53.592;10.184;2022-07-22T12:03:45;101556.84;;;20.94;100.00
16016;BME280;8112;53.592;10.184;2022-07-22T12:08:54;101550.09;;;21.39;100.00
16016;BME280;8112;53.592;10.184;2022-07-22T12:14:05;101556.31;;;21.49;100.00
16016;BME280;8112;53.592;10.184;2022-07-22T12:19:09;101560.13;;;21.17;100.00
16016;BME280;8112;53.592;10.184;2022-07-22T12:24:11;101561.81;;;21.38;100.00
16016;BME280;8112;53.592;10.184;2022-07-22T12:29:19;101568.03;;;21.09;100.00
16016;BME280;8112;53.592;10.184;2022-07-22T12:34:36;101556.75;;;21.15;100.00
16016;BME280;8112;53.592;10.184;2022-07-22T12:39:38;101556.34;;;21.30;100.00
16016;BME280;8112;53.592;10.184;2022-07-22T12:44:50;101564.91;;;21.04;100.00
16016;BME280;8112;53.592;10.184;2022-07-22T12:49:52;101556.66;;;20.66;100.00
16016;BME280;8112;53.592;10.184;2022-07-22T12:54:54;101551.81;;;21.11;100.00
16016;BME280;8112;53.592;10.184;2022-07-22T12:59:58;101555.75;;;21.16;100.00
16016;BME280;8112;53.592;10.184;2022-07-22T13:05:00;101549.13;;;21.40;100.00
16016;BME280;8112;53.592;10.184;2022-07-22T13:10:02;101547.72;;;21.26;100.00
16016;BME280;8112;53.592;10.184;2022-07-22T13:15:06;101550.13;;;21.19;100.00
16016;BME280;8112;53.592;10.184;2022-07-22T13:20:10;101542.78;;;21.31;100.00
16016;BME280;8112;53.592;10.184;2022-07-22T13:25:13;101535.72;;;21.20;100.00
16016;BME280;8112;53.592;10.184;2022-07-22T13:30:16;101528.81;;;21.47;100.00
16016;BME280;8112;53.592;10.184;2022-07-22T13:35:18;101531.50;;;21.28;100.00
16016;BME280;8112;53.592;10.184;2022-07-22T13:40:20;101532.31;;;21.38;100.00
16016;BME280;8112;53.592;10.184;2022-07-22T13:45:23;101530.50;;;21.29;100.00
16016;BME280;8112;53.592;10.184;2022-07-22T13:50:25;101528.78;;;21.57;100.00
16016;BME280;8112;53.592;10.184;2022-07-22T13:55:27;101537.69;;;21.18;100.00
16016;BME280;8112;53.592;10.184;2022-07-22T14:00:32;101533.31;;;21.07;100.00
16016;BME280;8112;53.592;10.184;2022-07-22T14:05:34;101533.63;;;21.24;100.00
16016;BME280;8112;53.592;10.184;2022-07-22T14:10:36;101533.31;;;21.07;100.00
16016;BME280;8112;53.592;10.184;2022-07-22T14:15:39;101519.81;;;21.09;100.00
16016;BME280;8112;53.592;10.184;2022-07-22T14:20:41;101521.22;;;21.13;100.00
16016;BME280;8112;53.592;10.184;2022-07-22T14:25:43;101522.59;;;21.17;100.00
16016;BME280;8112;53.592;10.184;2022-07-22T14:30:58;101526.56;;;21.33;100.00
16016;BME280;8112;53.592;10.184;2022-07-22T14:36:00;101524.59;;;21.25;100.00
16016;BME280;8112;53.592;10.184;2022-07-22T14:41:01;101528.25;;;21.14;100.00
16016;BME280;8112;53.592;10.184;2022-07-22T14:46:06;101522.88;;;21.44;100.00
16016;BME280;8112;53.592;10.184;2022-07-22T14:51:10;101529.34;;;21.81;100.00
16016;BME280;8112;53.592;10.184;2022-07-22T14:56:11;101529.06;;;21.64;100.00
16016;BME280;8112;53.592;10.184;2022-07-22T15:01:15;101535.84;;;21.58;100.00
16016;BME280;8112;53.592;10.184;2022-07-22T15:06:17;101526.25;;;21.46;100.00
16016;BME280;8112;53.592;10.184;2022-07-22T15:11:18;101526.53;;;21.72;100.00
16016;BME280;8112;53.592;10.184;2022-07-22T15:16:22;101522.16;;;21.52;100.00
16016;BME280;8112;53.592;10.184;2022-07-22T15:21:24;101509.28;;;21.85;100.00
16016;BME280;8112;53.592;10.184;2022-07-22T15:26:26;101508.66;;;21.91;100.00
16016;BME280;8112;53.592;10.184;2022-07-22T15:31:29;101515.50;;;21.56;100.00
16016;BME280;8112;53.592;10.184;2022-07-22T15:36:32;101508.63;;;22.01;100.00
16016;BME280;8112;53.592;10.184;2022-07-22T15:41:34;101514.56;;;22.04;100.00
16016;BME280;8112;53.592;10.184;2022-07-22T15:46:38;101494.16;;;22.68;100.00
16016;BME280;8112;53.592;10.184;2022-07-22T15:51:40;101514.78;;;22.21;100.00
16016;BME280;8112;53.592;10.184;2022-07-22T15:56:41;101504.78;;;21.56;100.00
16016;BME280;8112;53.592;10.184;2022-07-22T16:01:44;101503.66;;;21.58;100.00
16016;BME280;8112;53.592;10.184;2022-07-22T16:06:46;101499.91;;;21.41;100.00
16016;BME280;8112;53.592;10.184;2022-07-22T16:11:48;101501.44;;;22.29;100.00
16016;BME280;8112;53.592;10.184;2022-07-22T16:16:52;101504.50;;;21.59;100.00
16016;BME280;8112;53.592;10.184;2022-07-22T16:21:53;101499.31;;;20.78;100.00
16016;BME280;8112;53.592;10.184;2022-07-22T16:26:55;101495.63;;;20.70;100.00
16016;BME280;8112;53.592;10.184;2022-07-22T16:31:58;101500.00;;;20.61;100.00
16016;BME280;8112;53.592;10.184;2022-07-22T16:37:01;101494.66;;;20.71;100.00
16016;BME280;8112;53.592;10.184;2022-07-22T16:42:03;101490.63;;;21.06;100.00
16016;BME280;8112;53.592;10.184;2022-07-22T16:47:06;101488.56;;;20.59;100.00
16016;BME280;8112;53.592;10.184;2022-07-22T16:52:08;101488.09;;;20.44;100.00
16016;BME280;8112;53.592;10.184;2022-07-22T16:57:10;101483.53;;;20.15;100.00
16016;BME280;8112;53.592;10.184;2022-07-22T17:02:13;101480.69;;;20.16;100.00
16016;BME280;8112;53.592;10.184;2022-07-22T17:07:15;101483.50;;;20.05;100.00
16016;BME280;8112;53.592;10.184;2022-07-22T17:12:20;101485.91;;;19.87;100.00
16016;BME280;8112;53.592;10.184;2022-07-22T17:17:23;101485.03;;;20.07;100.00
16016;BME280;8112;53.592;10.184;2022-07-22T17:22:25;101476.47;;;19.83;100.00
16016;BME280;8112;53.592;10.184;2022-07-22T17:27:29;101484.28;;;19.74;100.00
16016;BME280;8112;53.592;10.184;2022-07-22T17:32:32;101482.97;;;19.59;100.00
16016;BME280;8112;53.592;10.184;2022-07-22T17:37:34;101484.59;;;19.50;100.00
16016;BME280;8112;53.592;10.184;2022-07-22T17:42:36;101472.78;;;19.52;100.00
16016;BME280;8112;53.592;10.184;2022-07-22T17:47:40;101480.22;;;19.49;100.00
16016;BME280;8112;53.592;10.184;2022-07-22T17:52:52;101478.59;;;19.36;100.00
16016;BME280;8112;53.592;10.184;2022-07-22T17:57:56;101483.56;;;19.41;100.00
16016;BME280;8112;53.592;10.184;2022-07-22T18:03:03;101473.25;;;19.36;100.00
16016;BME280;8112;53.592;10.184;2022-07-22T18:08:05;101467.84;;;19.27;100.00
16016;BME280;8112;53.592;10.184;2022-07-22T18:13:06;101467.88;;;19.15;100.00
16016;BME280;8112;53.592;10.184;2022-07-22T18:18:17;101469.13;;;19.11;100.00
16016;BME280;8112;53.592;10.184;2022-07-22T18:23:22;101467.09;;;18.92;100.00
16016;BME280;8112;53.592;10.184;2022-07-22T18:28:26;101472.00;;;18.75;100.00
16016;BME280;8112;53.592;10.184;2022-07-22T18:33:34;101471.09;;;18.65;100.00
16016;BME280;8112;53.592;10.184;2022-07-22T18:38:39;101494.59;;;18.71;100.00
16016;BME280;8112;53.592;10.184;2022-07-22T18:43:42;101481.41;;;18.70;100.00
16016;BME280;8112;53.592;10.184;2022-07-22T18:48:45;101484.94;;;18.59;100.00
16016;BME280;8112;53.592;10.184;2022-07-22T18:53:47;101468.97;;;18.36;100.00
16016;BME280;8112;53.592;10.184;2022-07-22T18:58:49;101474.44;;;18.34;100.00
16016;BME280;8112;53.592;10.184;2022-07-22T19:03:56;101474.47;;;18.12;100.00
16016;BME280;8112;53.592;10.184;2022-07-22T19:09:09;101466.56;;;18.10;100.00
16016;BME280;8112;53.592;10.184;2022-07-22T19:14:11;101465.72;;;18.09;100.00
16016;BME280;8112;53.592;10.184;2022-07-22T19:19:14;101473.97;;;18.06;100.00
16016;BME280;8112;53.592;10.184;2022-07-22T19:24:18;101476.88;;;18.03;100.00
16016;BME280;8112;53.592;10.184;2022-07-22T19:29:20;101482.53;;;17.99;100.00
16016;BME280;8112;53.592;10.184;2022-07-22T19:34:23;101473.59;;;18.11;100.00
16016;BME280;8112;53.592;10.184;2022-07-22T19:39:27;101485.50;;;18.07;100.00
16016;BME280;8112;53.592;10.184;2022-07-22T19:44:29;101491.25;;;18.01;100.00
16016;BME280;8112;53.592;10.184;2022-07-22T19:49:32;101493.84;;;18.02;100.00
16016;BME280;8112;53.592;10.184;2022-07-22T19:54:36;101486.41;;;17.94;100.00
16016;BME280;8112;53.592;10.184;2022-07-22T19:59:38;101500.22;;;18.00;100.00
16016;BME280;8112;53.592;10.184;2022-07-22T20:04:45;101484.63;;;18.06;100.00
16016;BME280;8112;53.592;10.184;2022-07-22T20:09:47;101487.56;;;18.15;100.00
16016;BME280;8112;53.592;10.184;2022-07-22T20:14:49;101482.22;;;18.03;100.00
16016;BME280;8112;53.592;10.184;2022-07-22T20:19:52;101473.72;;;17.98;100.00
16016;BME280;8112;53.592;10.184;2022-07-22T20:25:00;101483.88;;;17.81;100.00
16016;BME280;8112;53.592;10.184;2022-07-22T20:30:09;101466.41;;;17.89;100.00
16016;BME280;8112;53.592;10.184;2022-07-22T20:35:15;101464.59;;;17.78;100.00
16016;BME280;8112;53.592;10.184;2022-07-22T20:40:16;101463.53;;;17.80;100.00
16016;BME280;8112;53.592;10.184;2022-07-22T20:45:18;101473.06;;;17.83;100.00
16016;BME280;8112;53.592;10.184;2022-07-22T20:50:27;101467.16;;;17.79;100.00
16016;BME280;8112;53.592;10.184;2022-07-22T20:55:46;101471.97;;;17.74;100.00
16016;BME280;8112;53.592;10.184;2022-07-22T21:00:48;101471.38;;;17.82;100.00
16016;BME280;8112;53.592;10.184;2022-07-22T21:06:00;101467.63;;;17.73;100.00
16016;BME280;8112;53.592;10.184;2022-07-22T21:11:10;101477.56;;;17.71;100.00
16016;BME280;8112;53.592;10.184;2022-07-22T21:16:13;101476.22;;;17.77;100.00
16016;BME280;8112;53.592;10.184;2022-07-22T21:21:19;101475.13;;;17.57;100.00
16016;BME280;8112;53.592;10.184;2022-07-22T21:26:29;101468.59;;;17.61;100.00
16016;BME280;8112;53.592;10.184;2022-07-22T21:32:00;101470.53;;;17.70;100.00
16016;BME280;8112;53.592;10.184;2022-07-22T21:37:12;101470.53;;;17.70;100.00
16016;BME280;8112;53.592;10.184;2022-07-22T21:42:19;101470.41;;;17.72;100.00
16016;BME280;8112;53.592;10.184;2022-07-22T21:47:21;101465.94;;;17.61;100.00
16016;BME280;8112;53.592;10.184;2022-07-22T21:52:24;101466.38;;;17.55;100.00
16016;BME280;8112;53.592;10.184;2022-07-22T21:57:26;101449.94;;;17.61;100.00
16016;BME280;8112;53.592;10.184;2022-07-22T22:02:27;101451.50;;;17.63;100.00
16016;BME280;8112;53.592;10.184;2022-07-22T22:07:33;101448.94;;;17.39;100.00
16016;BME280;8112;53.592;10.184;2022-07-22T22:12:38;101453.75;;;17.34;100.00
16016;BME280;8112;53.592;10.184;2022-07-22T22:17:40;101460.78;;;17.35;100.00
16016;BME280;8112;53.592;10.184;2022-07-22T22:22:43;101449.53;;;17.43;100.00
16016;BME280;8112;53.592;10.184;2022-07-22T22:27:45;101443.59;;;17.39;100.00
16016;BME280;8112;53.592;10.184;2022-07-22T22:32:49;101438.03;;;17.42;100.00
16016;BME280;8112;53.592;10.184;2022-07-22T22:37:52;101433.09;;;17.49;100.00
16016;BME280;8112;53.592;10.184;2022-07-22T22:42:54;101431.97;;;17.51;100.00
16016;BME280;8112;53.592;10.184;2022-07-22T22:47:56;101439.50;;;17.46;100.00
16016;BME280;8112;53.592;10.184;2022-07-22T22:53:02;101430.03;;;17.53;100.00
16016;BME280;8112;53.592;10.184;2022-07-22T22:58:10;101438.28;;;17.50;100.00
16016;BME280;8112;53.592;10.184;2022-07-22T23:03:35;101443.63;;;17.62;100.00
16016;BME280;8112;53.592;10.184;2022-07-22T23:08:38;101437.81;;;17.68;100.00
16016;BME280;8112;53.592;10.184;2022-07-22T23:13:49;101443.13;;;17.45;100.00
16016;BME280;8112;53.592;10.184;2022-07-22T23:18:51;101433.44;;;17.56;100.00
16016;BME280;8112;53.592;10.184;2022-07-22T23:23:54;101441.31;;;17.57;100.00
16016;BME280;8112;53.592;10.184;2022-07-22T23:28:56;101442.06;;;17.71;100.00
16016;BME280;8112;53.592;10.184;2022-07-22T23:33:58;101444.22;;;17.65;100.00
16016;BME280;8112;53.592;10.184;2022-07-22T23:39:07;101453.19;;;17.53;100.00
16016;BME280;8112;53.592;10.184;2022-07-22T23:44:15;101459.50;;;17.52;100.00
16016;BME280;8112;53.592;10.184;2022-07-22T23:49:28;101469.63;;;17.47;100.00
16016;BME280;8112;53.592;10.184;2022-07-22T23:54:47;101463.81;;;17.42;100.00
16016;BME280;8112;53.592;10.184;2022-07-22T23:59:48;101469.88;;;17.32;100.00
